Current River (Missouri), Montauk (07064440)

StateMissouriCurrentPotential (98 cfs)
RiverCurrent RiverFlood - The river is flooding. Obstacles can be treacherous or deadly. The river should be avoided at this stage for casual trips and definitely for the inexperienced. Trips should be attempted only with protective gear and equipment.Flood(none)
Updated2019-10-14 3:15 (34 minutes ago)High - The river is high and potentially dangerous, especially for the young and / or inexperienced. Normal stream obstacles are sometimes difficult to navigate. Extended distances can be attempted, but canoe travel may not be advisable.High(none)
Discharge98 cfs (median: 94 cfs)Good - Conditions are ideal for a canoe or kayak. Boats typically will drag on fewer than one-quarter of riffles, if at all, and portages are unnecessary or rare. Normal float lengths can be attempted without a problem.Good(none)
Height1.78 feetLow - River is low but can still be floated. Some riffles are okay but most come with significant dragging and might need a portage. Float lengths should be reduced to accommodate low flow, dragging, and portages.Low(none)
TrendFalling (falling over 24 hours)Poor - River is too low to float comfortably. Most or all riffles will drag or must be portaged and some obstacles (such as slick shelf rock) cause undue problems. Avoid the river at this stage for casual paddling trips.Poor(none)
USGSExternal icon USGS Site for Montauk (07064440)LocationExternal icon Google Maps

Trending Data

Plot Image
ObservationHeightDischargeMaximum
Discharge
Minimum
Discharge
Mean
Discharge
P05P10P20P25P50
(Median)
P75P80P90P95
2019-10-14 03:15 1.78 98 160 (2010) 52 (2008) 94 55 75 86 94 96 99 148
2019-10-14 02:15 1.79 100 160 (2010) 52 (2008) 94 55 75 86 94 96 99 148
2019-10-14 01:15 1.79 100 160 (2010) 52 (2008) 94 55 75 86 94 96 99 148
2019-10-14 00:15 1.78 98 160 (2010) 52 (2008) 94 55 75 86 94 96 99 148
2019-10-13 23:15 1.79 100 172 (2010) 52 (2008) 91 54 65 67 93 96 97 157
2019-10-13 22:15 1.79 100 172 (2010) 52 (2008) 91 54 65 67 93 96 97 157
2019-10-13 21:15 1.78 98 172 (2010) 52 (2008) 91 54 65 67 93 96 97 157
2019-10-13 20:15 1.79 100 172 (2010) 52 (2008) 91 54 65 67 93 96 97 157
2019-10-13 19:15 1.79 100 172 (2010) 52 (2008) 91 54 65 67 93 96 97 157
2019-10-13 18:15 1.79 100 172 (2010) 52 (2008) 91 54 65 67 93 96 97 157
2019-10-13 17:15 1.79 100 172 (2010) 52 (2008) 91 54 65 67 93 96 97 157
2019-10-13 16:15 1.79 100 172 (2010) 52 (2008) 91 54 65 67 93 96 97 157
2019-10-13 15:15 1.79 100 172 (2010) 52 (2008) 91 54 65 67 93 96 97 157
2019-10-13 14:15 1.79 100 172 (2010) 52 (2008) 91 54 65 67 93 96 97 157
2019-10-13 13:15 1.79 100 172 (2010) 52 (2008) 91 54 65 67 93 96 97 157
2019-10-13 12:15 1.79 100 172 (2010) 52 (2008) 91 54 65 67 93 96 97 157
2019-10-13 11:15 1.79 100 172 (2010) 52 (2008) 91 54 65 67 93 96 97 157
2019-10-13 10:15 1.79 100 172 (2010) 52 (2008) 91 54 65 67 93 96 97 157
2019-10-13 09:15 1.79 100 172 (2010) 52 (2008) 91 54 65 67 93 96 97 157
2019-10-13 08:15 1.79 100 172 (2010) 52 (2008) 91 54 65 67 93 96 97 157
2019-10-13 07:15 1.79 100 172 (2010) 52 (2008) 91 54 65 67 93 96 97 157
2019-10-13 06:15 1.79 100 172 (2010) 52 (2008) 91 54 65 67 93 96 97 157
2019-10-13 05:15 1.79 100 172 (2010) 52 (2008) 91 54 65 67 93 96 97 157
2019-10-13 04:15 1.79 100 172 (2010) 52 (2008) 91 54 65 67 93 96 97 157
2019-10-13 03:15 1.79 100 172 (2010) 52 (2008) 91 54 65 67 93 96 97 157
2019-10-13 02:15 1.79 100 172 (2010) 52 (2008) 91 54 65 67 93 96 97 157
2019-10-13 01:15 1.79 100 172 (2010) 52 (2008) 91 54 65 67 93 96 97 157
2019-10-13 00:15 1.79 100 172 (2010) 52 (2008) 91 54 65 67 93 96 97 157
2019-10-12 23:15 1.79 100 192 (2010) 52 (2008) 93 54 63 64 93 97 97 173
2019-10-12 22:15 1.79 100 192 (2010) 52 (2008) 93 54 63 64 93 97 97 173
2019-10-12 21:15 1.79 100 192 (2010) 52 (2008) 93 54 63 64 93 97 97 173
2019-10-12 20:15 1.79 100 192 (2010) 52 (2008) 93 54 63 64 93 97 97 173
2019-10-12 19:15 1.79 100 192 (2010) 52 (2008) 93 54 63 64 93 97 97 173
2019-10-12 18:15 1.79 100 192 (2010) 52 (2008) 93 54 63 64 93 97 97 173
2019-10-12 17:15 1.79 100 192 (2010) 52 (2008) 93 54 63 64 93 97 97 173
2019-10-12 16:15 1.79 100 192 (2010) 52 (2008) 93 54 63 64 93 97 97 173
2019-10-12 15:15 1.79 100 192 (2010) 52 (2008) 93 54 63 64 93 97 97 173
2019-10-12 14:15 1.79 100 192 (2010) 52 (2008) 93 54 63 64 93 97 97 173
2019-10-12 13:15 1.79 100 192 (2010) 52 (2008) 93 54 63 64 93 97 97 173
2019-10-12 12:15 1.80 101 192 (2010) 52 (2008) 93 54 63 64 93 97 97 173
2019-10-12 11:15 1.79 100 192 (2010) 52 (2008) 93 54 63 64 93 97 97 173
2019-10-12 10:15 1.80 101 192 (2010) 52 (2008) 93 54 63 64 93 97 97 173
2019-10-12 09:15 1.80 101 192 (2010) 52 (2008) 93 54 63 64 93 97 97 173
2019-10-12 08:15 1.80 101 192 (2010) 52 (2008) 93 54 63 64 93 97 97 173
2019-10-12 07:15 1.80 101 192 (2010) 52 (2008) 93 54 63 64 93 97 97 173
2019-10-12 06:15 1.79 100 192 (2010) 52 (2008) 93 54 63 64 93 97 97 173
2019-10-12 05:15 1.79 100 192 (2010) 52 (2008) 93 54 63 64 93 97 97 173
2019-10-12 04:15 1.80 101 192 (2010) 52 (2008) 93 54 63 64 93 97 97 173
2019-10-12 03:15 1.80 101 192 (2010) 52 (2008) 93 54 63 64 93 97 97 173
2019-10-12 02:15 1.80 101 192 (2010) 52 (2008) 93 54 63 64 93 97 97 173
2019-10-12 01:15 1.80 101 192 (2010) 52 (2008) 93 54 63 64 93 97 97 173
2019-10-12 00:15 1.80 101 192 (2010) 52 (2008) 93 54 63 64 93 97 97 173
2019-10-11 23:15 1.80 101 222 (2010) 52 (2008) 96 53 62 66 94 94 96 197
2019-10-11 22:15 1.80 101 222 (2010) 52 (2008) 96 53 62 66 94 94 96 197
2019-10-11 21:15 1.81 103 222 (2010) 52 (2008) 96 53 62 66 94 94 96 197
2019-10-11 20:15 1.81 103 222 (2010) 52 (2008) 96 53 62 66 94 94 96 197
2019-10-11 19:15 1.81 103 222 (2010) 52 (2008) 96 53 62 66 94 94 96 197
2019-10-11 18:15 1.81 103 222 (2010) 52 (2008) 96 53 62 66 94 94 96 197
2019-10-11 17:15 1.81 103 222 (2010) 52 (2008) 96 53 62 66 94 94 96 197
2019-10-11 16:15 1.80 101 222 (2010) 52 (2008) 96 53 62 66 94 94 96 197
2019-10-11 15:15 1.81 103 222 (2010) 52 (2008) 96 53 62 66 94 94 96 197
2019-10-11 14:15 1.81 103 222 (2010) 52 (2008) 96 53 62 66 94 94 96 197
2019-10-11 13:15 1.81 103 222 (2010) 52 (2008) 96 53 62 66 94 94 96 197
2019-10-11 12:15 1.82 105 222 (2010) 52 (2008) 96 53 62 66 94 94 96 197
2019-10-11 11:15 1.82 105 222 (2010) 52 (2008) 96 53 62 66 94 94 96 197
2019-10-11 10:15 1.83 106 222 (2010) 52 (2008) 96 53 62 66 94 94 96 197
2019-10-11 09:15 1.84 108 222 (2010) 52 (2008) 96 53 62 66 94 94 96 197
2019-10-11 08:15 1.85 109 222 (2010) 52 (2008) 96 53 62 66 94 94 96 197
2019-10-11 07:15 1.86 111 222 (2010) 52 (2008) 96 53 62 66 94 94 96 197
2019-10-11 06:15 1.87 113 222 (2010) 52 (2008) 96 53 62 66 94 94 96 197
2019-10-11 05:15 1.88 114 222 (2010) 52 (2008) 96 53 62 66 94 94 96 197
2019-10-11 04:15 1.92 121 222 (2010) 52 (2008) 96 53 62 66 94 94 96 197
2019-10-11 03:15 1.97 129 222 (2010) 52 (2008) 96 53 62 66 94 94 96 197
2019-10-11 02:15 1.91 119 222 (2010) 52 (2008) 96 53 62 66 94 94 96 197
2019-10-11 01:15 1.86 111 222 (2010) 52 (2008) 96 53 62 66 94 94 96 197
2019-10-11 00:15 1.80 101 222 (2010) 52 (2008) 96 53 62 66 94 94 96 197
2019-10-10 23:15 1.80 101 278 (2010) 52 (2008) 101 54 63 68 94 94 96 242
2019-10-10 22:15 1.80 101 278 (2010) 52 (2008) 101 54 63 68 94 94 96 242
2019-10-10 21:15 1.80 101 278 (2010) 52 (2008) 101 54 63 68 94 94 96 242
2019-10-10 20:15 1.80 101 278 (2010) 52 (2008) 101 54 63 68 94 94 96 242
2019-10-10 19:15 1.79 100 278 (2010) 52 (2008) 101 54 63 68 94 94 96 242
2019-10-10 18:15 1.79 100 278 (2010) 52 (2008) 101 54 63 68 94 94 96 242
2019-10-10 17:15 1.79 100 278 (2010) 52 (2008) 101 54 63 68 94 94 96 242
2019-10-10 16:15 1.79 100 278 (2010) 52 (2008) 101 54 63 68 94 94 96 242
2019-10-10 15:15 1.78 98 278 (2010) 52 (2008) 101 54 63 68 94 94 96 242
2019-10-10 14:15 1.79 100 278 (2010) 52 (2008) 101 54 63 68 94 94 96 242
2019-10-10 13:15 1.78 98 278 (2010) 52 (2008) 101 54 63 68 94 94 96 242
2019-10-10 12:15 1.79 100 278 (2010) 52 (2008) 101 54 63 68 94 94 96 242
2019-10-10 11:15 1.78 98 278 (2010) 52 (2008) 101 54 63 68 94 94 96 242
2019-10-10 10:15 1.78 98 278 (2010) 52 (2008) 101 54 63 68 94 94 96 242
2019-10-10 09:15 1.78 98 278 (2010) 52 (2008) 101 54 63 68 94 94 96 242
2019-10-10 08:15 1.78 98 278 (2010) 52 (2008) 101 54 63 68 94 94 96 242
2019-10-10 07:15 1.78 98 278 (2010) 52 (2008) 101 54 63 68 94 94 96 242
2019-10-10 06:15 1.79 100 278 (2010) 52 (2008) 101 54 63 68 94 94 96 242
2019-10-10 05:15 1.79 100 278 (2010) 52 (2008) 101 54 63 68 94 94 96 242
2019-10-10 04:15 1.78 98 278 (2010) 52 (2008) 101 54 63 68 94 94 96 242
2019-10-10 03:15 1.79 100 278 (2010) 52 (2008) 101 54 63 68 94 94 96 242
2019-10-10 02:15 1.78 98 278 (2010) 52 (2008) 101 54 63 68 94 94 96 242
2019-10-10 01:15 1.78 98 278 (2010) 52 (2008) 101 54 63 68 94 94 96 242
2019-10-10 00:15 1.79 100 278 (2010) 52 (2008) 101 54 63 68 94 94 96 242
2019-10-09 23:15 1.79 100 344 (2010) 52 (2008) 107 54 62 64 94 95 97 295
2019-10-09 22:15 1.78 98 344 (2010) 52 (2008) 107 54 62 64 94 95 97 295
2019-10-09 21:15 1.79 100 344 (2010) 52 (2008) 107 54 62 64 94 95 97 295
2019-10-09 20:15 1.79 100 344 (2010) 52 (2008) 107 54 62 64 94 95 97 295
2019-10-09 19:15 1.79 100 344 (2010) 52 (2008) 107 54 62 64 94 95 97 295
2019-10-09 18:15 1.78 98 344 (2010) 52 (2008) 107 54 62 64 94 95 97 295
2019-10-09 17:15 1.79 100 344 (2010) 52 (2008) 107 54 62 64 94 95 97 295
2019-10-09 16:15 1.79 100 344 (2010) 52 (2008) 107 54 62 64 94 95 97 295
2019-10-09 15:15 1.79 100 344 (2010) 52 (2008) 107 54 62 64 94 95 97 295
2019-10-09 14:15 1.79 100 344 (2010) 52 (2008) 107 54 62 64 94 95 97 295
2019-10-09 13:15 1.79 100 344 (2010) 52 (2008) 107 54 62 64 94 95 97 295
2019-10-09 12:15 1.79 100 344 (2010) 52 (2008) 107 54 62 64 94 95 97 295
2019-10-09 11:15 1.79 100 344 (2010) 52 (2008) 107 54 62 64 94 95 97 295
2019-10-09 10:15 1.79 100 344 (2010) 52 (2008) 107 54 62 64 94 95 97 295
2019-10-09 09:15 1.79 100 344 (2010) 52 (2008) 107 54 62 64 94 95 97 295
2019-10-09 08:15 1.79 100 344 (2010) 52 (2008) 107 54 62 64 94 95 97 295
2019-10-09 07:15 1.79 100 344 (2010) 52 (2008) 107 54 62 64 94 95 97 295
2019-10-09 06:15 1.79 100 344 (2010) 52 (2008) 107 54 62 64 94 95 97 295
2019-10-09 05:15 1.79 100 344 (2010) 52 (2008) 107 54 62 64 94 95 97 295
2019-10-09 04:15 1.79 100 344 (2010) 52 (2008) 107 54 62 64 94 95 97 295
2019-10-09 03:15 1.79 100 344 (2010) 52 (2008) 107 54 62 64 94 95 97 295
2019-10-09 02:15 1.79 100 344 (2010) 52 (2008) 107 54 62 64 94 95 97 295
2019-10-09 01:15 1.79 100 344 (2010) 52 (2008) 107 54 62 64 94 95 97 295
2019-10-09 00:15 1.79 100 344 (2010) 52 (2008) 107 54 62 64 94 95 97 295
2019-10-08 23:15 1.79 100 98 (2014) 53 (2008) 84 54 59 61 94 95 97 98
2019-10-08 22:15 1.79 100 98 (2014) 53 (2008) 84 54 59 61 94 95 97 98
2019-10-08 21:15 1.79 100 98 (2014) 53 (2008) 84 54 59 61 94 95 97 98
2019-10-08 20:15 1.79 100 98 (2014) 53 (2008) 84 54 59 61 94 95 97 98
2019-10-08 19:15 1.79 100 98 (2014) 53 (2008) 84 54 59 61 94 95 97 98
2019-10-08 18:15 1.79 100 98 (2014) 53 (2008) 84 54 59 61 94 95 97 98
2019-10-08 17:15 1.79 100 98 (2014) 53 (2008) 84 54 59 61 94 95 97 98
2019-10-08 16:15 1.79 100 98 (2014) 53 (2008) 84 54 59 61 94 95 97 98
2019-10-08 15:15 1.79 100 98 (2014) 53 (2008) 84 54 59 61 94 95 97 98
2019-10-08 14:15 1.79 100 98 (2014) 53 (2008) 84 54 59 61 94 95 97 98
2019-10-08 13:15 1.79 100 98 (2014) 53 (2008) 84 54 59 61 94 95 97 98
2019-10-08 12:15 1.79 100 98 (2014) 53 (2008) 84 54 59 61 94 95 97 98
2019-10-08 11:15 1.79 100 98 (2014) 53 (2008) 84 54 59 61 94 95 97 98
2019-10-08 10:15 1.79 100 98 (2014) 53 (2008) 84 54 59 61 94 95 97 98
2019-10-08 09:15 1.79 100 98 (2014) 53 (2008) 84 54 59 61 94 95 97 98
2019-10-08 08:15 1.79 100 98 (2014) 53 (2008) 84 54 59 61 94 95 97 98
2019-10-08 07:15 1.79 100 98 (2014) 53 (2008) 84 54 59 61 94 95 97 98
2019-10-08 06:15 1.79 100 98 (2014) 53 (2008) 84 54 59 61 94 95 97 98
2019-10-08 05:15 1.79 100 98 (2014) 53 (2008) 84 54 59 61 94 95 97 98
2019-10-08 04:15 1.79 100 98 (2014) 53 (2008) 84 54 59 61 94 95 97 98
2019-10-08 03:15 1.79 100 98 (2014) 53 (2008) 84 54 59 61 94 95 97 98
2019-10-08 02:15 1.79 100 98 (2014) 53 (2008) 84 54 59 61 94 95 97 98
2019-10-08 01:15 1.80 101 98 (2014) 53 (2008) 84 54 59 61 94 95 97 98
2019-10-08 00:15 1.80 101 98 (2014) 53 (2008) 84 54 59 61 94 95 97 98
2019-10-07 23:15 1.80 101 99 (2014) 53 (2008) 84 54 60 62 94 95 95 98
2019-10-07 22:15 1.80 101 99 (2014) 53 (2008) 84 54 60 62 94 95 95 98
2019-10-07 21:15 1.80 101 99 (2014) 53 (2008) 84 54 60 62 94 95 95 98
2019-10-07 20:15 1.80 101 99 (2014) 53 (2008) 84 54 60 62 94 95 95 98
2019-10-07 19:15 1.80 101 99 (2014) 53 (2008) 84 54 60 62 94 95 95 98
2019-10-07 18:15 1.80 101 99 (2014) 53 (2008) 84 54 60 62 94 95 95 98
2019-10-07 17:15 1.80 101 99 (2014) 53 (2008) 84 54 60 62 94 95 95 98
2019-10-07 16:15 1.80 101 99 (2014) 53 (2008) 84 54 60 62 94 95 95 98
2019-10-07 15:15 1.80 101 99 (2014) 53 (2008) 84 54 60 62 94 95 95 98
2019-10-07 14:15 1.80 101 99 (2014) 53 (2008) 84 54 60 62 94 95 95 98
2019-10-07 13:15 1.80 101 99 (2014) 53 (2008) 84 54 60 62 94 95 95 98
2019-10-07 12:15 1.80 101 99 (2014) 53 (2008) 84 54 60 62 94 95 95 98
2019-10-07 11:15 1.80 101 99 (2014) 53 (2008) 84 54 60 62 94 95 95 98
2019-10-07 10:15 1.80 101 99 (2014) 53 (2008) 84 54 60 62 94 95 95 98
2019-10-07 09:15 1.80 101 99 (2014) 53 (2008) 84 54 60 62 94 95 95 98
2019-10-07 08:15 1.80 101 99 (2014) 53 (2008) 84 54 60 62 94 95 95 98
2019-10-07 07:15 1.80 101 99 (2014) 53 (2008) 84 54 60 62 94 95 95 98
2019-10-07 06:15 1.80 101 99 (2014) 53 (2008) 84 54 60 62 94 95 95 98
2019-10-07 05:15 1.80 101 99 (2014) 53 (2008) 84 54 60 62 94 95 95 98
2019-10-07 04:15 1.80 101 99 (2014) 53 (2008) 84 54 60 62 94 95 95 98
2019-10-07 03:15 1.80 101 99 (2014) 53 (2008) 84 54 60 62 94 95 95 98
2019-10-07 02:15 1.80 101 99 (2014) 53 (2008) 84 54 60 62 94 95 95 98
2019-10-07 01:15 1.80 101 99 (2014) 53 (2008) 84 54 60 62 94 95 95 98
2019-10-07 00:15 1.81 103 99 (2014) 53 (2008) 84 54 60 62 94 95 95 98

A total of 172 rows are displayed for years 2008 through 2018.

Trips for Current River (Missouri), Montauk (07064440)

DateStartEndDistanceConditionDischargeHeightFishingDetails

A total of 0 rows are displayed.

Condition Descriptions

Fishing Conditions

Fish Species

Notes

Classic Trip List

The classic River Trips application is still available for use. It is updated with the new system using a data retrofit. It is no longer maintained. The original River Trips application is no longer updated (as of 1 Dec 2016) but can be checked for errors or for the condition of the data before it was converted to the new system.